Time;durP1;ratioP1;P1;durP2;ratioP2;P2;SDS_P1;SDS_P2;PMS_P1;PMS_P2;Temp;Humidity;BMP_temperature;BMP_pressure;BME280_temperature;BME280_humidity;BME280_pressure;Samples;Min_cycle;Max_cycle;Signal;HPM_P1;HPM_P2
2021/12/15 00:00:29;;;;;;;10.10;5.47;;;;;;;15.00;59.61;102810.91;5124870;27;20613;-61
2021/12/15 00:02:54;;;;;;;9.97;5.47;;;;;;;15.03;59.61;102817.88;5123917;27;20028;-61
2021/12/15 00:05:23;;;;;;;10.03;5.60;;;;;;;15.03;59.41;102823.09;5125185;27;20472;-62
2021/12/15 00:07:51;;;;;;;9.55;5.40;;;;;;;14.98;59.50;102810.91;5125275;27;20024;-62
2021/12/15 00:10:18;;;;;;;9.20;5.32;;;;;;;14.96;59.84;102810.06;5123383;27;20043;-62
2021/12/15 00:12:43;;;;;;;9.32;5.25;;;;;;;15.00;59.58;102810.03;5124625;27;20031;-62
2021/12/15 00:15:09;;;;;;;9.77;5.57;;;;;;;15.00;59.78;102807.41;5125142;27;20478;-60
2021/12/15 00:17:36;;;;;;;10.10;5.30;;;;;;;15.01;60.02;102815.28;5122956;27;20026;-61
2021/12/15 00:20:01;;;;;;;;;;;;;;;15.10;59.80;102812.63;5127903;27;20277;-61
2021/12/15 00:22:26;;;;;;;9.37;4.90;;;;;;;15.02;59.48;102803.94;5125165;27;20006;-61
2021/12/15 00:24:52;;;;;;;9.10;5.37;;;;;;;15.03;59.66;102810.88;5122996;27;20369;-60
2021/12/15 00:27:17;;;;;;;10.30;5.43;;;;;;;14.98;59.74;102800.44;5121847;27;20465;-62
2021/12/15 00:29:43;;;;;;;10.23;5.57;;;;;;;14.97;59.67;102797.84;5114369;28;20422;-61
2021/12/15 00:32:09;;;;;;;9.00;5.40;;;;;;;15.01;59.70;102809.16;5114066;28;20027;-61
2021/12/15 00:34:37;;;;;;;9.40;5.53;;;;;;;14.94;59.75;102790.88;5114439;28;20046;-62
2021/12/15 00:37:04;;;;;;;9.25;5.50;;;;;;;15.02;59.90;102809.16;5115010;28;20053;-62
2021/12/15 00:39:30;;;;;;;9.75;5.40;;;;;;;14.97;59.82;102801.31;5114991;28;20031;-61
2021/12/15 00:41:57;;;;;;;8.15;5.00;;;;;;;14.96;59.86;102790.88;5114890;28;20481;-61
2021/12/15 00:44:23;;;;;;;9.60;5.40;;;;;;;15.00;59.70;102805.69;5114756;28;20089;-62
2021/12/15 00:46:51;;;;;;;10.25;5.60;;;;;;;15.01;59.85;102798.69;5114586;28;20044;-62
2021/12/15 00:49:17;;;;;;;9.07;5.40;;;;;;;15.00;59.81;102800.44;5114595;28;20042;-62
2021/12/15 00:51:42;;;;;;;10.73;5.60;;;;;;;14.99;59.56;102801.31;5114917;28;20454;-61
2021/12/15 00:54:09;;;;;;;8.83;5.30;;;;;;;14.98;59.67;102796.97;5114387;28;20069;-61
2021/12/15 00:56:36;;;;;;;9.13;5.32;;;;;;;15.01;59.70;102799.59;5114608;28;20089;-62
2021/12/15 00:59:04;;;;;;;9.90;5.47;;;;;;;14.98;59.67;102800.44;5114547;28;20027;-62
2021/12/15 01:01:30;;;;;;;9.75;5.38;;;;;;;15.00;59.78;102800.44;5114151;28;20048;-62
2021/12/15 01:03:56;;;;;;;10.20;5.35;;;;;;;14.97;59.90;102787.38;5114484;28;20031;-62
2021/12/15 01:06:22;;;;;;;10.67;5.47;;;;;;;14.98;59.85;102797.81;5114527;28;20036;-62
2021/12/15 01:08:57;;;;;;;9.27;5.43;;;;;;;15.01;60.00;102807.44;5113949;28;20060;-62
2021/12/15 01:11:47;;;;;;;9.80;5.10;;;;;;;15.02;60.00;102803.06;5114242;28;20031;-61
2021/12/15 01:19:48;;;;;;;9.77;5.47;;;;;;;15.01;59.97;102810.03;5114048;28;20089;-62
2021/12/15 01:22:18;;;;;;;9.45;4.97;;;;;;;15.01;60.00;102817.00;5113716;28;20024;-62
2021/12/15 01:24:43;;;;;;;10.65;5.38;;;;;;;15.00;59.92;102807.41;5114082;28;20159;-62
2021/12/15 01:27:09;;;;;;;9.67;5.27;;;;;;;15.00;60.10;102808.31;5114239;28;20031;-62
2021/12/15 01:29:35;;;;;;;10.60;5.67;;;;;;;15.01;60.06;102806.53;5114069;28;20521;-60
2021/12/15 01:32:00;;;;;;;9.23;5.30;;;;;;;15.01;59.99;102807.44;5114322;28;20028;-62
2021/12/15 01:34:26;;;;;;;8.70;5.20;;;;;;;14.94;59.74;102796.13;5113760;28;20492;-61
2021/12/15 01:36:52;;;;;;;11.18;5.68;;;;;;;15.01;59.98;102811.78;5113578;28;20039;-61
2021/12/15 01:39:18;;;;;;;11.77;5.47;;;;;;;14.96;60.02;102799.59;5112835;28;20024;-62
2021/12/15 01:41:44;;;;;;;10.55;5.32;;;;;;;14.96;59.98;102798.72;5113656;28;20031;-62
2021/12/15 01:47:01;;;;;;;8.53;5.27;;;;;;;14.96;60.06;102806.56;5113796;28;20036;-62
2021/12/15 01:49:32;;;;;;;8.50;5.13;;;;;;;14.98;60.01;102823.97;5113792;28;20019;-61
2021/12/15 01:52:03;;;;;;;9.18;5.03;;;;;;;14.96;60.06;102810.06;5113740;28;20455;-61
2021/12/15 01:54:30;;;;;;;9.00;5.07;;;;;;;14.99;59.75;102819.63;5113885;28;20027;-62
2021/12/15 01:56:56;;;;;;;;;;;;;;;15.08;59.63;102819.59;5114072;28;20031;-62
2021/12/15 01:59:24;;;;;;;8.50;4.95;;;;;;;15.00;59.95;102816.16;5113574;28;19960;-62
2021/12/15 02:01:50;;;;;;;11.65;5.63;;;;;;;14.96;59.77;102811.78;5113530;28;20068;-61
2021/12/15 02:04:19;;;;;;;10.10;5.33;;;;;;;15.00;60.00;102820.47;5113714;28;20035;-61
2021/12/15 02:06:45;;;;;;;10.15;5.07;;;;;;;14.99;60.06;102822.25;5113299;28;20675;-62
2021/12/15 02:09:14;;;;;;;8.77;5.07;;;;;;;15.00;59.97;102823.97;5113573;28;20035;-61
2021/12/15 02:11:40;;;;;;;10.35;5.53;;;;;;;15.00;59.79;102831.84;5113001;28;20027;-62
2021/12/15 02:14:05;;;;;;;9.30;5.00;;;;;;;15.01;59.95;102837.91;5113211;28;20047;-61
2021/12/15 02:16:31;;;;;;;8.53;5.07;;;;;;;14.94;60.04;102826.59;5113215;28;20458;-62
2021/12/15 02:18:56;;;;;;;9.43;5.07;;;;;;;15.00;59.66;102834.44;5113302;28;20040;-61
2021/12/15 02:21:25;;;;;;;9.67;5.67;;;;;;;15.01;59.87;102835.31;5113172;28;20499;-61
2021/12/15 02:23:56;;;;;;;8.57;5.03;;;;;;;15.00;59.93;102839.69;5113447;28;20027;-61
2021/12/15 02:26:34;;;;;;;8.75;5.20;;;;;;;14.95;59.76;102826.63;5112925;28;20485;-62
2021/12/15 02:29:03;;;;;;;10.23;5.32;;;;;;;15.01;59.94;102843.16;5112913;28;20461;-62
2021/12/15 02:34:21;;;;;;;10.45;5.68;;;;;;;14.99;59.72;102835.31;5113336;28;20019;-62
2021/12/15 02:39:32;;;;;;;8.95;5.38;;;;;;;14.96;59.86;102830.09;5113104;28;20031;-61
2021/12/15 02:41:58;;;;;;;10.18;5.55;;;;;;;14.96;59.83;102830.09;5112934;28;20385;-61
2021/12/15 02:44:24;;;;;;;10.57;5.17;;;;;;;14.96;59.90;102820.50;5112927;28;20028;-62
2021/12/15 02:46:52;;;;;;;9.75;5.22;;;;;;;14.98;59.85;102834.44;5113226;28;20024;-61
2021/12/15 02:49:22;;;;;;;10.98;5.70;;;;;;;14.88;60.09;102817.03;5113719;28;20185;-62
2021/12/15 02:51:50;;;;;;;10.23;5.68;;;;;;;15.00;59.64;102834.44;5117447;28;20365;-62
2021/12/15 02:54:18;;;;;;;9.32;5.10;;;;;;;15.00;60.04;102830.94;5116799;28;20042;-61
2021/12/15 02:56:45;;;;;;;9.27;5.18;;;;;;;15.00;59.85;102831.84;5116873;28;20029;-62
2021/12/15 02:59:13;;;;;;;9.02;5.15;;;;;;;14.98;60.02;102828.34;5116981;28;20124;-62
2021/12/15 03:04:36;;;;;;;9.38;5.13;;;;;;;14.95;59.87;102818.78;5116997;28;20454;-62
2021/12/15 03:07:16;;;;;;;9.68;5.20;;;;;;;14.90;59.85;102820.50;5116748;28;20038;-62
2021/12/15 03:17:40;;;;;;;10.18;5.57;;;;;;;14.98;60.07;102829.19;5116375;28;20050;-62
2021/12/15 03:20:08;;;;;;;9.93;5.30;;;;;;;14.98;59.86;102828.34;5116466;28;20386;-62
2021/12/15 03:22:33;;;;;;;10.57;5.38;;;;;;;14.98;60.21;102826.59;5116660;28;20038;-62
2021/12/15 03:24:59;;;;;;;9.23;5.33;;;;;;;14.99;59.97;102817.00;5116575;28;20035;-62
2021/12/15 03:33:15;;;;;;;10.57;5.57;;;;;;;14.91;60.04;102809.19;5116347;28;20024;-61
2021/12/15 03:36:00;;;;;;;8.10;4.85;;;;;;;14.96;60.11;102814.41;5116037;28;20065;-62
2021/12/15 03:38:27;;;;;;;8.90;4.82;;;;;;;14.96;60.11;102817.91;5116294;28;20066;-62
2021/12/15 03:40:53;;;;;;;9.77;5.40;;;;;;;14.98;60.01;102816.13;5116309;28;20032;-61
2021/12/15 03:43:20;;;;;;;9.85;5.20;;;;;;;14.87;59.97;102801.34;5116189;28;20027;-62
2021/12/15 03:45:53;;;;;;;10.00;5.30;;;;;;;14.94;59.78;102818.75;5115984;28;20032;-62
2021/12/15 03:48:23;;;;;;;8.90;5.13;;;;;;;14.91;60.28;102819.63;5116039;28;20089;-62
2021/12/15 03:50:48;;;;;;;9.23;5.18;;;;;;;14.96;59.79;102830.97;5116117;28;20028;-62
2021/12/15 03:53:16;;;;;;;9.67;5.23;;;;;;;14.94;59.97;102829.22;5115735;28;20038;-62
2021/12/15 03:55:42;;;;;;;8.35;4.78;;;;;;;14.92;60.01;102837.06;5115978;28;20081;-63
2021/12/15 03:58:11;;;;;;;8.88;4.88;;;;;;;14.97;59.85;102845.75;5115534;28;20067;-62
2021/12/15 04:00:40;;;;;;;9.77;5.38;;;;;;;14.97;59.57;102843.16;5115268;28;20051;-62
2021/12/15 04:03:14;;;;;;;9.77;5.15;;;;;;;14.94;59.99;102839.66;5115421;28;20032;-63
2021/12/15 04:05:40;;;;;;;8.25;5.10;;;;;;;14.98;60.30;102847.50;5115715;28;20024;-62
2021/12/15 04:08:05;;;;;;;8.53;4.90;;;;;;;14.89;59.83;102833.59;5115680;28;20039;-62
2021/12/15 04:10:31;;;;;;;9.23;5.07;;;;;;;14.97;59.98;102850.13;5115642;28;20106;-62
2021/12/15 04:12:56;;;;;;;11.00;5.47;;;;;;;14.97;59.94;102845.75;5115410;28;20036;-62
2021/12/15 04:17:52;;;;;;;8.98;4.97;;;;;;;14.95;59.92;102842.31;5115411;28;20381;-63
2021/12/15 04:20:20;;;;;;;8.88;5.10;;;;;;;14.97;59.94;102850.13;5115033;28;20496;-62
2021/12/15 04:22:46;;;;;;;9.80;5.28;;;;;;;14.96;59.96;102849.28;5097997;28;20050;-62
2021/12/15 04:25:18;;;;;;;10.40;5.43;;;;;;;14.92;60.03;102841.41;5115437;28;20106;-62
2021/12/15 04:27:56;;;;;;;8.52;4.90;;;;;;;14.92;60.06;102844.91;5115088;28;20619;-62
2021/12/15 04:30:24;;;;;;;9.48;5.25;;;;;;;14.96;59.84;102859.72;5114797;28;20031;-62
2021/12/15 04:32:49;;;;;;;9.70;5.18;;;;;;;14.91;59.86;102844.94;5114996;28;20023;-61
2021/12/15 04:35:15;;;;;;;8.43;5.20;;;;;;;14.95;59.92;102858.00;5115171;28;20085;-62
2021/12/15 04:37:42;;;;;;;8.63;5.13;;;;;;;14.96;59.89;102864.97;5115520;28;20429;-61
2021/12/15 04:40:10;;;;;;;8.52;5.00;;;;;;;14.96;59.92;102854.50;5114687;28;20046;-61
2021/12/15 04:42:38;;;;;;;8.18;4.93;;;;;;;14.97;59.93;102857.97;5114767;28;20026;-61
2021/12/15 04:45:05;;;;;;;7.97;5.05;;;;;;;14.92;59.94;102860.59;5114747;28;20034;-61
2021/12/15 04:47:31;;;;;;;9.80;5.03;;;;;;;14.90;60.08;102851.88;5115015;28;20032;-62
2021/12/15 04:49:56;;;;;;;9.57;5.20;;;;;;;14.92;59.99;102855.38;5114786;28;20038;-62
2021/12/15 04:52:25;;;;;;;10.00;5.20;;;;;;;14.91;60.01;102853.63;5114902;28;20102;-60
2021/12/15 04:54:51;;;;;;;7.30;4.72;;;;;;;14.94;59.70;102863.19;5114413;28;20035;-62
2021/12/15 04:57:19;;;;;;;9.23;5.47;;;;;;;14.93;60.04;102869.28;5114492;28;20035;-61
2021/12/15 04:59:45;;;;;;;8.70;5.00;;;;;;;14.93;60.03;102867.56;5114051;28;20027;-62
2021/12/15 05:02:14;;;;;;;9.40;5.05;;;;;;;14.93;59.94;102864.97;5094197;28;20513;-62
2021/12/15 05:04:40;;;;;;;9.75;5.18;;;;;;;14.96;59.90;102877.16;5094235;28;20059;-62
2021/12/15 05:07:06;;;;;;;7.97;4.80;;;;;;;14.91;59.87;102863.22;5093699;28;20028;-62
2021/12/15 05:09:32;;;;;;;8.85;5.00;;;;;;;14.95;60.01;102868.44;5094093;28;20308;-62
2021/12/15 05:11:57;;;;;;;8.60;4.80;;;;;;;14.95;60.05;102878.91;5093550;28;20024;-62
2021/12/15 05:14:24;;;;;;;8.63;4.90;;;;;;;14.92;59.92;102868.44;5093690;28;20031;-62
2021/12/15 05:16:52;;;;;;;10.10;5.10;;;;;;;14.91;59.73;102868.44;5093824;28;20032;-62
2021/12/15 05:19:18;;;;;;;9.65;5.10;;;;;;;14.93;59.77;102877.13;5093850;28;20032;-63
2021/12/15 05:21:44;;;;;;;8.02;4.68;;;;;;;14.93;60.00;102880.66;5093908;28;20032;-61
2021/12/15 05:24:30;;;;;;;8.77;4.97;;;;;;;14.95;59.83;102875.41;5075592;28;20422;-61
2021/12/15 05:27:16;;;;;;;9.18;5.13;;;;;;;14.97;59.80;102882.38;5093767;28;20050;-62
2021/12/15 05:29:45;;;;;;;8.68;4.88;;;;;;;14.94;60.14;102882.38;5093574;28;20043;-62
2021/12/15 05:32:12;;;;;;;8.52;4.90;;;;;;;14.94;59.95;102877.16;5093668;28;20412;-61
2021/12/15 05:34:39;;;;;;;9.02;4.88;;;;;;;14.94;60.09;102886.72;5093435;28;20032;-61
2021/12/15 05:37:04;;;;;;;8.50;4.68;;;;;;;14.93;60.00;102880.66;5093593;28;20427;-61
2021/12/15 05:39:31;;;;;;;8.60;4.90;;;;;;;14.94;59.92;102884.13;5093748;28;20033;-63
2021/12/15 05:41:57;;;;;;;9.50;4.95;;;;;;;14.94;59.81;102878.88;5093172;28;20052;-62
2021/12/15 05:44:24;;;;;;;9.17;4.70;;;;;;;14.94;59.79;102886.72;5093544;28;20458;-62
2021/12/15 05:46:49;;;;;;;;;;;;;;;15.02;59.79;102886.72;5093843;28;20020;-62
2021/12/15 05:49:15;;;;;;;8.50;4.70;;;;;;;14.90;59.85;102883.25;5093346;28;20274;-62
2021/12/15 05:51:41;;;;;;;8.20;4.70;;;;;;;14.95;59.74;102886.75;5100067;28;20454;-61
2021/12/15 05:54:08;;;;;;;8.60;4.80;;;;;;;14.90;59.90;102885.00;5113131;28;20110;-62
2021/12/15 05:56:34;;;;;;;9.52;4.97;;;;;;;14.90;60.08;102880.63;5113504;28;20047;-62
2021/12/15 05:59:00;;;;;;;9.27;5.00;;;;;;;14.93;59.89;102890.22;5095620;28;20108;-62
2021/12/15 06:01:27;;;;;;;8.25;4.78;;;;;;;14.88;59.83;102873.69;5127684;27;20051;-61
2021/12/15 06:03:52;;;;;;;;;;;;;;;15.02;59.63;102889.34;5116124;27;20038;-62
2021/12/15 06:06:18;;;;;;;8.37;4.60;;;;;;;14.95;59.97;102886.75;5133989;27;19911;-61
2021/12/15 06:08:43;;;;;;;8.73;5.00;;;;;;;14.93;59.89;102891.09;5133894;27;20271;-62
2021/12/15 06:11:08;;;;;;;9.67;5.30;;;;;;;14.94;59.91;102889.34;5134113;27;20061;-62
2021/12/15 06:13:34;;;;;;;8.67;4.83;;;;;;;14.90;59.74;102885.88;5134077;28;20027;-62
2021/12/15 06:16:00;;;;;;;7.07;4.33;;;;;;;14.93;59.68;102895.44;5133628;28;20027;-60
2021/12/15 06:18:26;;;;;;;7.65;4.60;;;;;;;14.94;59.75;102892.84;5133322;28;20438;-61
2021/12/15 06:20:54;;;;;;;10.45;5.18;;;;;;;14.85;60.17;102884.13;5134008;28;20023;-61
2021/12/15 06:23:21;;;;;;;8.05;4.72;;;;;;;14.91;60.16;102898.06;5133915;28;20027;-62
2021/12/15 06:25:56;;;;;;;11.15;5.72;;;;;;;14.93;60.09;102904.16;5119079;27;20039;-62
2021/12/15 06:28:23;;;;;;;10.88;5.50;;;;;;;14.91;60.07;102899.81;5137752;27;20027;-61
2021/12/15 06:30:50;;;;;;;11.80;5.60;;;;;;;14.87;59.83;102900.69;5129004;27;20084;-61
2021/12/15 06:33:16;;;;;;;12.93;5.30;;;;;;;14.90;60.26;102906.78;5128413;27;20402;-61
2021/12/15 06:35:51;;;;;;;12.00;5.40;;;;;;;14.90;60.24;102911.16;5131454;27;20115;-61
2021/12/15 06:38:17;;;;;;;13.35;6.13;;;;;;;14.90;60.10;102909.41;5135011;27;20031;-61
2021/12/15 06:40:42;;;;;;;12.13;5.47;;;;;;;14.87;60.14;102904.16;5131032;27;20106;-61
2021/12/15 06:43:08;;;;;;;13.20;6.00;;;;;;;14.90;60.19;102913.75;5127427;27;20049;-61
2021/12/15 06:45:39;;;;;;;14.63;6.13;;;;;;;14.89;59.94;102909.41;5127938;27;20059;-62
2021/12/15 06:59:00;;;;;;;13.20;6.10;;;;;;;14.88;60.43;102910.28;5136633;27;20135;-61
2021/12/15 07:01:26;;;;;;;9.87;5.30;;;;;;;14.86;60.07;102904.16;5136250;27;20134;-67
2021/12/15 07:03:51;;;;;;;11.43;5.90;;;;;;;14.79;60.31;102895.47;5131290;27;20020;-60
2021/12/15 07:06:17;;;;;;;10.33;5.40;;;;;;;14.87;60.13;102919.84;5100279;28;20032;-62
2021/12/15 07:08:43;;;;;;;13.10;6.37;;;;;;;14.90;60.13;102927.69;5115677;28;20469;-62
2021/12/15 07:11:08;;;;;;;10.90;5.18;;;;;;;14.82;59.78;102917.22;5115398;28;20038;-62
2021/12/15 07:13:35;;;;;;;8.97;4.87;;;;;;;14.89;60.01;102938.16;5115058;28;20461;-61
2021/12/15 07:16:04;;;;;;;11.60;5.35;;;;;;;14.85;60.18;102926.84;5115721;28;20061;-62
2021/12/15 07:18:40;;;;;;;10.85;4.93;;;;;;;14.83;59.98;102925.97;5115939;28;20106;-62
2021/12/15 07:21:10;;;;;;;11.65;5.35;;;;;;;14.88;60.20;102933.81;5115897;28;20074;-61
2021/12/15 07:23:36;;;;;;;11.45;5.88;;;;;;;14.85;60.24;102931.19;5115310;28;20084;-62
2021/12/15 07:26:03;;;;;;;10.80;5.75;;;;;;;14.79;60.27;102918.97;5116067;28;20035;-62
2021/12/15 07:28:28;;;;;;;11.70;5.45;;;;;;;14.81;60.01;102923.31;5115222;28;20028;-61
2021/12/15 07:30:54;;;;;;;12.30;5.50;;;;;;;14.89;60.16;102938.16;5116253;28;20469;-62
2021/12/15 07:33:20;;;;;;;10.43;5.60;;;;;;;14.85;60.11;102936.41;5116455;28;20118;-62
2021/12/15 07:35:46;;;;;;;9.60;5.10;;;;;;;14.88;59.86;102937.28;5114986;28;20289;-62
2021/12/15 07:38:12;;;;;;;11.53;5.03;;;;;;;14.88;60.26;102944.25;5116042;28;20261;-62
2021/12/15 07:40:40;;;;;;;9.52;5.28;;;;;;;14.76;60.15;102919.84;5116043;28;20107;-62
2021/12/15 07:43:11;;;;;;;10.70;5.47;;;;;;;14.87;60.20;102940.75;5116009;28;20024;-62
2021/12/15 07:45:43;;;;;;;11.02;5.50;;;;;;;14.86;60.35;102933.78;5116094;28;20207;-62
2021/12/15 07:48:10;;;;;;;11.15;5.63;;;;;;;14.82;60.21;102935.53;5097277;28;20372;-61
2021/12/15 07:50:38;;;;;;;9.63;5.25;;;;;;;14.77;59.89;102933.78;5116097;28;20110;-61
2021/12/15 07:53:05;;;;;;;12.07;5.47;;;;;;;14.88;60.06;102944.25;5115577;28;20114;-60
2021/12/15 07:55:31;;;;;;;11.50;5.93;;;;;;;14.85;60.33;102939.91;5115772;28;20063;-61
2021/12/15 07:57:57;;;;;;;11.07;5.43;;;;;;;14.79;60.38;102938.16;5115943;28;20465;-62
2021/12/15 08:00:24;;;;;;;11.57;5.57;;;;;;;14.87;60.30;102947.75;5115884;28;20454;-62
2021/12/15 08:02:51;;;;;;;11.98;5.70;;;;;;;14.86;60.12;102948.59;5099993;27;20027;-62
2021/12/15 08:05:16;;;;;;;9.88;5.00;;;;;;;14.80;60.00;102947.75;5127714;27;20042;-62
2021/12/15 08:07:42;;;;;;;10.60;5.50;;;;;;;14.85;60.17;102944.25;5132291;27;20027;-61
2021/12/15 08:10:10;;;;;;;11.87;5.80;;;;;;;14.86;59.73;102959.94;5132200;27;20269;-61
2021/12/15 08:12:37;;;;;;;12.90;5.50;;;;;;;14.85;59.92;102954.72;5130127;27;20047;-62
2021/12/15 08:15:06;;;;;;;11.35;5.55;;;;;;;14.76;60.15;102947.72;5131823;27;20031;-62
2021/12/15 08:17:31;;;;;;;10.48;5.40;;;;;;;14.85;60.06;102966.06;5132110;27;20089;-61
2021/12/15 08:19:57;;;;;;;11.03;5.47;;;;;;;14.83;59.87;102960.81;5132195;27;20035;-62
2021/12/15 08:22:22;;;;;;;11.67;5.60;;;;;;;14.86;60.07;102966.91;5129604;27;20033;-62
2021/12/15 08:24:47;;;;;;;10.50;5.40;;;;;;;14.87;59.85;102966.03;5131257;27;20461;-61
2021/12/15 08:27:13;;;;;;;12.40;5.93;;;;;;;14.84;59.84;102961.69;5133514;27;20035;-63
2021/12/15 08:29:38;;;;;;;11.23;5.80;;;;;;;14.80;59.96;102959.94;5101195;28;20492;-62
2021/12/15 08:32:04;;;;;;;11.53;5.40;;;;;;;14.85;59.70;102967.78;5115092;28;20476;-61
2021/12/15 08:34:29;;;;;;;15.23;6.83;;;;;;;14.81;60.39;102953.84;5115037;28;20485;-62
2021/12/15 08:36:55;;;;;;;13.13;6.53;;;;;;;14.79;60.28;102952.97;5115208;28;20066;-62
2021/12/15 08:39:21;;;;;;;14.20;6.63;;;;;;;14.84;60.22;102972.16;5115545;28;20038;-61
2021/12/15 08:41:46;;;;;;;14.45;6.45;;;;;;;14.83;59.88;102968.66;5135636;27;20399;-61
2021/12/15 08:44:12;;;;;;;12.43;6.00;;;;;;;14.84;59.96;102969.53;5135680;27;20027;-62
2021/12/15 08:46:43;;;;;;;12.10;6.00;;;;;;;14.79;60.15;102964.31;5117084;27;20026;-62
2021/12/15 08:49:16;;;;;;;16.92;7.03;;;;;;;14.83;60.39;102965.19;5135381;27;20115;-62
2021/12/15 08:51:42;;;;;;;15.48;6.88;;;;;;;14.74;60.18;102958.19;5129386;27;20051;-62
2021/12/15 08:54:14;;;;;;;15.07;6.75;;;;;;;14.75;60.08;102965.16;5133943;27;20031;-62
2021/12/15 08:56:40;;;;;;;15.27;6.55;;;;;;;14.76;60.20;102964.28;5134564;27;20042;-62
2021/12/15 08:59:06;;;;;;;13.35;5.97;;;;;;;14.80;60.07;102967.78;5134935;27;20027;-62
2021/12/15 09:01:31;;;;;;;14.13;6.30;;;;;;;14.83;60.28;102970.41;5134389;27;20066;-62
2021/12/15 09:03:57;;;;;;;16.03;7.27;;;;;;;14.81;59.93;102969.53;5135031;27;20030;-61
2021/12/15 09:06:23;;;;;;;14.67;6.20;;;;;;;14.84;60.36;102977.38;5129719;27;20046;-62
2021/12/15 09:08:49;;;;;;;14.85;6.75;;;;;;;14.80;59.90;102973.00;5129952;27;20023;-62
2021/12/15 09:11:17;;;;;;;12.38;5.75;;;;;;;14.81;60.04;102975.59;5127904;27;20031;-62
2021/12/15 09:13:44;;;;;;;14.57;6.82;;;;;;;14.82;60.38;102992.19;5130390;27;20027;-62
2021/12/15 09:16:11;;;;;;;15.50;6.47;;;;;;;14.79;59.97;102984.31;5134004;27;20037;-62
2021/12/15 09:18:39;;;;;;;15.20;6.90;;;;;;;14.78;60.14;102979.97;5134342;27;20069;-60
2021/12/15 09:21:07;;;;;;;13.77;6.35;;;;;;;14.79;60.05;102985.22;5127623;27;20023;-62
2021/12/15 09:23:33;;;;;;;13.88;6.63;;;;;;;14.75;60.16;102982.59;5125524;27;20023;-62
2021/12/15 09:25:59;;;;;;;15.27;6.73;;;;;;;14.81;60.18;102988.69;5120970;27;20128;-61
2021/12/15 09:28:25;;;;;;;13.97;6.70;;;;;;;14.76;60.40;102987.81;5123985;27;20030;-62
2021/12/15 09:30:52;;;;;;;16.25;6.50;;;;;;;14.81;60.17;103003.50;5123977;27;20024;-61
2021/12/15 09:33:24;;;;;;;13.57;6.30;;;;;;;14.82;60.13;103007.88;5122058;27;20479;-62
2021/12/15 09:35:50;;;;;;;13.13;6.32;;;;;;;14.81;59.93;103014.81;5121743;27;20034;-61
2021/12/15 09:38:19;;;;;;;15.53;6.50;;;;;;;14.81;60.10;103006.97;5123925;27;20023;-62
2021/12/15 09:40:46;;;;;;;14.85;6.43;;;;;;;14.82;60.22;103013.09;5122870;27;20269;-62
2021/12/15 09:43:11;;;;;;;;;;;;;;;14.90;59.91;103013.97;5122199;27;20042;-61
2021/12/15 10:19:20;;;;;;;13.15;6.30;;;;;;;14.85;59.99;103020.06;5070485;28;20044;-61
2021/12/15 10:22:26;;;;;;;16.40;7.38;;;;;;;14.88;60.15;103015.69;5126753;28;20419;-62
2021/12/15 10:24:56;;;;;;;14.82;6.60;;;;;;;14.83;60.38;103022.69;5119726;28;20118;-61
2021/12/15 10:27:59;;;;;;;13.50;6.43;;;;;;;14.88;59.93;103020.94;5114455;28;20359;-62
2021/12/15 10:30:26;;;;;;;15.10;6.72;;;;;;;14.85;60.04;103020.94;5112925;28;20028;-62
2021/12/15 10:33:04;;;;;;;15.63;7.63;;;;;;;14.84;60.43;103016.59;5113191;28;20458;-62
2021/12/15 10:35:42;;;;;;;14.70;6.80;;;;;;;14.83;60.25;103012.22;5120430;28;20035;-61
2021/12/15 10:38:46;;;;;;;13.70;6.72;;;;;;;14.89;60.01;103027.91;5112767;28;20108;-62
2021/12/15 10:41:11;;;;;;;13.50;6.63;;;;;;;14.85;59.90;103015.72;5113316;28;20087;-62
2021/12/15 10:43:54;;;;;;;12.47;6.20;;;;;;;14.85;59.96;103007.00;5113186;28;20114;-62
2021/12/15 10:46:22;;;;;;;14.60;7.20;;;;;;;14.86;60.46;103022.66;5112918;28;20024;-62
2021/12/15 10:48:52;;;;;;;15.05;6.95;;;;;;;14.86;59.90;103013.97;5112546;28;20031;-62
2021/12/15 10:51:21;;;;;;;13.25;6.68;;;;;;;14.85;60.26;103020.94;5112843;28;20031;-61
2021/12/15 10:53:47;;;;;;;16.92;7.00;;;;;;;14.87;60.25;103026.16;5112935;28;20024;-62
2021/12/15 10:56:14;;;;;;;;;;;;;;;14.93;59.86;103027.06;5113432;28;20114;-62
2021/12/15 10:58:43;;;;;;;13.75;6.57;;;;;;;14.78;60.06;103014.84;5112977;28;20277;-62
2021/12/15 11:01:30;;;;;;;13.40;6.50;;;;;;;14.88;60.02;103033.16;5129163;28;20370;-61
2021/12/15 11:03:57;;;;;;;13.93;6.45;;;;;;;14.84;60.23;103024.44;5133474;28;20031;-62
2021/12/15 11:06:32;;;;;;;13.65;6.65;;;;;;;14.79;60.15;103011.34;5114085;28;20032;-61
2021/12/15 11:09:36;;;;;;;13.23;6.82;;;;;;;14.88;60.12;103020.94;5110830;28;20152;-61
2021/12/15 11:12:10;;;;;;;14.90;7.10;;;;;;;14.83;60.43;103023.53;5071501;28;20469;-61
2021/12/15 11:14:39;;;;;;;14.25;6.95;;;;;;;14.80;60.21;103014.81;5113197;28;20042;-61
2021/12/15 11:17:30;;;;;;;14.15;7.07;;;;;;;14.85;60.20;103015.72;5114568;28;20477;-60
2021/12/15 11:20:27;;;;;;;14.43;7.05;;;;;;;14.87;60.04;103021.81;5111473;28;20274;-61
2021/12/15 11:23:14;;;;;;;14.30;7.13;;;;;;;14.87;60.14;103015.72;5100374;28;20047;-62
2021/12/15 11:25:52;;;;;;;14.75;7.18;;;;;;;14.83;60.31;103015.69;5116463;28;20053;-61
2021/12/15 11:28:20;;;;;;;13.15;6.85;;;;;;;14.83;60.37;103010.47;5128583;27;20052;-62
2021/12/15 11:30:51;;;;;;;14.10;7.13;;;;;;;14.81;60.21;103019.19;5137171;27;20023;-61
2021/12/15 11:33:26;;;;;;;14.30;6.82;;;;;;;14.83;60.13;103017.47;5136490;27;20031;-62
2021/12/15 11:35:55;;;;;;;14.73;7.23;;;;;;;14.83;60.52;103017.47;5135824;27;20025;-61
2021/12/15 11:38:31;;;;;;;12.25;6.43;;;;;;;14.73;60.44;102998.25;5136739;27;20116;-61
2021/12/15 11:40:56;;;;;;;14.10;7.18;;;;;;;14.83;60.24;103009.63;5134747;27;20027;-61
2021/12/15 11:43:27;;;;;;;14.33;7.20;;;;;;;14.82;60.32;103005.25;5136564;27;20505;-61
2021/12/15 11:45:52;;;;;;;15.13;7.15;;;;;;;14.79;60.39;103003.50;5118482;27;20031;-61
2021/12/15 11:48:32;;;;;;;14.37;7.23;;;;;;;14.84;60.52;103003.53;5131344;27;20034;-60
2021/12/15 11:51:02;;;;;;;14.98;7.30;;;;;;;14.84;60.12;103013.97;5136250;27;20023;-61
2021/12/15 11:53:38;;;;;;;14.98;7.10;;;;;;;14.84;60.14;103013.97;5136239;27;20126;-62
2021/12/15 11:56:42;;;;;;;14.30;7.22;;;;;;;14.85;59.91;103012.22;5136403;27;20023;-61
2021/12/15 11:59:43;;;;;;;13.80;7.15;;;;;;;14.85;60.14;102997.41;5117814;27;20481;-62
2021/12/15 12:02:24;;;;;;;13.27;6.82;;;;;;;14.81;60.29;102996.53;5136344;27;20050;-61
2021/12/15 12:05:00;;;;;;;14.35;7.20;;;;;;;14.82;60.18;103006.13;5136736;27;20023;-62
2021/12/15 12:07:33;;;;;;;13.33;7.00;;;;;;;14.82;60.37;103013.94;5136702;27;20023;-62
2021/12/15 12:10:10;;;;;;;13.93;7.22;;;;;;;14.79;60.43;103000.00;5136631;27;20286;-62
2021/12/15 12:12:47;;;;;;;13.23;6.90;;;;;;;14.78;60.26;102990.41;5136499;27;20019;-61
2021/12/15 12:15:14;;;;;;;;;;;;;;;14.90;60.10;102993.06;5136894;27;20072;-62
2021/12/15 12:17:42;;;;;;;15.30;7.32;;;;;;;14.79;60.37;102990.44;5136485;27;20014;-62
2021/12/15 12:20:15;;;;;;;14.18;7.00;;;;;;;14.79;60.44;102990.44;5136427;27;20035;-62
2021/12/15 12:22:43;;;;;;;12.98;7.15;;;;;;;14.80;60.63;102992.19;5135399;27;20039;-61
2021/12/15 12:25:16;;;;;;;13.43;7.05;;;;;;;14.80;60.07;102991.31;5136087;27;20034;-62
2021/12/15 12:27:43;;;;;;;14.27;7.07;;;;;;;14.71;60.45;102973.00;5136346;27;20070;-61
2021/12/15 12:30:16;;;;;;;14.38;7.20;;;;;;;14.81;60.30;102990.44;5136098;27;20062;-62
2021/12/15 12:32:42;;;;;;;13.10;6.65;;;;;;;14.81;60.37;102987.81;5136306;27;20027;-62
2021/12/15 12:35:10;;;;;;;13.30;7.25;;;;;;;14.82;60.19;102997.41;5136049;27;20423;-62
2021/12/15 12:37:37;;;;;;;12.70;6.85;;;;;;;14.81;60.45;102986.06;5135659;27;20023;-62
2021/12/15 12:40:17;;;;;;;13.18;6.85;;;;;;;14.81;60.17;102987.81;5136128;27;20035;-62
2021/12/15 12:42:42;;;;;;;14.88;7.35;;;;;;;14.81;60.11;102980.84;5136206;27;20075;-62
2021/12/15 12:45:08;;;;;;;14.77;7.47;;;;;;;14.83;60.39;102981.72;5135887;27;20427;-62
2021/12/15 12:47:39;;;;;;;14.63;7.53;;;;;;;14.82;60.23;102973.88;5136232;27;20015;-62